sensor_id;sensor_type;location;lat;lon;timestamp;temperature;humidity
29007;DHT22;16104;48.642;9.008;2023-11-19T00:00:36;10.60;73.60
29007;DHT22;16104;48.642;9.008;2023-11-19T00:05:32;10.60;73.60
29007;DHT22;16104;48.642;9.008;2023-11-19T00:10:28;10.60;73.70
29007;DHT22;16104;48.642;9.008;2023-11-19T00:15:23;10.60;73.80
29007;DHT22;16104;48.642;9.008;2023-11-19T00:20:20;10.60;74.00
29007;DHT22;16104;48.642;9.008;2023-11-19T00:25:18;10.70;74.30
29007;DHT22;16104;48.642;9.008;2023-11-19T00:30:14;10.70;74.40
29007;DHT22;16104;48.642;9.008;2023-11-19T00:35:10;10.80;74.60
29007;DHT22;16104;48.642;9.008;2023-11-19T00:40:06;10.80;74.70
29007;DHT22;16104;48.642;9.008;2023-11-19T00:45:02;10.80;74.80
29007;DHT22;16104;48.642;9.008;2023-11-19T00:49:57;10.90;75.00
29007;DHT22;16104;48.642;9.008;2023-11-19T00:54:53;10.90;75.20
29007;DHT22;16104;48.642;9.008;2023-11-19T00:59:49;11.00;75.50
29007;DHT22;16104;48.642;9.008;2023-11-19T01:04:44;11.00;75.60
29007;DHT22;16104;48.642;9.008;2023-11-19T01:09:43;11.10;75.80
29007;DHT22;16104;48.642;9.008;2023-11-19T01:14:39;11.20;75.90
29007;DHT22;16104;48.642;9.008;2023-11-19T01:19:34;11.20;75.80
29007;DHT22;16104;48.642;9.008;2023-11-19T01:24:30;11.20;75.80
29007;DHT22;16104;48.642;9.008;2023-11-19T01:29:26;11.30;75.80
29007;DHT22;16104;48.642;9.008;2023-11-19T01:34:22;11.40;75.90
29007;DHT22;16104;48.642;9.008;2023-11-19T01:39:17;11.40;75.90
29007;DHT22;16104;48.642;9.008;2023-11-19T01:44:15;11.50;76.00
29007;DHT22;16104;48.642;9.008;2023-11-19T01:49:10;11.50;76.00
29007;DHT22;16104;48.642;9.008;2023-11-19T01:54:07;11.60;76.10
29007;DHT22;16104;48.642;9.008;2023-11-19T01:59:03;11.60;76.10
29007;DHT22;16104;48.642;9.008;2023-11-19T02:03:59;11.60;76.10
29007;DHT22;16104;48.642;9.008;2023-11-19T02:08:55;11.60;76.20
29007;DHT22;16104;48.642;9.008;2023-11-19T02:13:50;11.70;76.30
29007;DHT22;16104;48.642;9.008;2023-11-19T02:18:46;11.80;76.30
29007;DHT22;16104;48.642;9.008;2023-11-19T02:23:41;11.80;76.40
29007;DHT22;16104;48.642;9.008;2023-11-19T02:28:37;11.90;76.50
29007;DHT22;16104;48.642;9.008;2023-11-19T02:33:32;11.90;76.60
29007;DHT22;16104;48.642;9.008;2023-11-19T02:38:28;12.00;76.90
29007;DHT22;16104;48.642;9.008;2023-11-19T02:43:23;12.00;76.90
29007;DHT22;16104;48.642;9.008;2023-11-19T02:48:19;12.10;76.90
29007;DHT22;16104;48.642;9.008;2023-11-19T02:53:16;12.30;77.00
29007;DHT22;16104;48.642;9.008;2023-11-19T02:58:12;12.20;77.00
29007;DHT22;16104;48.642;9.008;2023-11-19T03:03:15;12.30;77.10
29007;DHT22;16104;48.642;9.008;2023-11-19T03:08:15;12.40;76.90
29007;DHT22;16104;48.642;9.008;2023-11-19T03:13:13;12.50;76.80
29007;DHT22;16104;48.642;9.008;2023-11-19T03:18:14;12.50;76.80
29007;DHT22;16104;48.642;9.008;2023-11-19T03:23:10;12.50;76.80
29007;DHT22;16104;48.642;9.008;2023-11-19T03:28:05;12.60;76.60
29007;DHT22;16104;48.642;9.008;2023-11-19T03:33:01;12.60;76.50
29007;DHT22;16104;48.642;9.008;2023-11-19T03:37:57;12.60;76.30
29007;DHT22;16104;48.642;9.008;2023-11-19T03:42:53;12.70;76.30
29007;DHT22;16104;48.642;9.008;2023-11-19T03:47:51;12.70;76.30
29007;DHT22;16104;48.642;9.008;2023-11-19T03:52:47;12.80;76.20
29007;DHT22;16104;48.642;9.008;2023-11-19T03:57:43;12.80;76.20
29007;DHT22;16104;48.642;9.008;2023-11-19T04:02:38;12.90;76.20
29007;DHT22;16104;48.642;9.008;2023-11-19T04:07:34;12.80;76.20
29007;DHT22;16104;48.642;9.008;2023-11-19T04:12:29;12.80;76.10
29007;DHT22;16104;48.642;9.008;2023-11-19T04:17:25;12.90;76.00
29007;DHT22;16104;48.642;9.008;2023-11-19T04:22:21;12.90;76.00
29007;DHT22;16104;48.642;9.008;2023-11-19T04:27:16;13.00;76.10
29007;DHT22;16104;48.642;9.008;2023-11-19T04:32:12;13.00;75.90
29007;DHT22;16104;48.642;9.008;2023-11-19T04:37:08;13.00;76.00
29007;DHT22;16104;48.642;9.008;2023-11-19T04:42:03;13.00;76.00
29007;DHT22;16104;48.642;9.008;2023-11-19T04:46:59;13.00;75.90
29007;DHT22;16104;48.642;9.008;2023-11-19T04:51:55;13.10;76.10
29007;DHT22;16104;48.642;9.008;2023-11-19T04:56:51;13.10;76.20
29007;DHT22;16104;48.642;9.008;2023-11-19T05:01:47;13.00;76.20
29007;DHT22;16104;48.642;9.008;2023-11-19T05:06:43;13.10;76.40
29007;DHT22;16104;48.642;9.008;2023-11-19T05:11:39;13.10;76.40
29007;DHT22;16104;48.642;9.008;2023-11-19T05:16:35;13.10;76.30
29007;DHT22;16104;48.642;9.008;2023-11-19T05:21:31;13.20;76.40
29007;DHT22;16104;48.642;9.008;2023-11-19T05:26:26;13.10;76.40
29007;DHT22;16104;48.642;9.008;2023-11-19T05:31:22;13.20;76.50
29007;DHT22;16104;48.642;9.008;2023-11-19T05:36:17;13.10;76.50
29007;DHT22;16104;48.642;9.008;2023-11-19T05:41:13;13.20;76.60
29007;DHT22;16104;48.642;9.008;2023-11-19T05:46:09;13.20;76.70
29007;DHT22;16104;48.642;9.008;2023-11-19T05:51:04;13.20;76.50
29007;DHT22;16104;48.642;9.008;2023-11-19T05:56:01;13.20;76.60
29007;DHT22;16104;48.642;9.008;2023-11-19T06:00:59;13.20;76.60
29007;DHT22;16104;48.642;9.008;2023-11-19T06:05:56;13.30;76.80
29007;DHT22;16104;48.642;9.008;2023-11-19T06:10:51;13.30;76.80
29007;DHT22;16104;48.642;9.008;2023-11-19T06:15:47;13.30;76.90
29007;DHT22;16104;48.642;9.008;2023-11-19T06:20:43;13.30;76.90
29007;DHT22;16104;48.642;9.008;2023-11-19T06:25:39;13.30;76.90
29007;DHT22;16104;48.642;9.008;2023-11-19T06:30:34;13.30;77.00
29007;DHT22;16104;48.642;9.008;2023-11-19T06:35:31;13.30;77.00
29007;DHT22;16104;48.642;9.008;2023-11-19T06:40:34;13.30;77.00
29007;DHT22;16104;48.642;9.008;2023-11-19T06:45:32;13.30;77.20
29007;DHT22;16104;48.642;9.008;2023-11-19T06:50:28;13.40;77.00
29007;DHT22;16104;48.642;9.008;2023-11-19T06:55:23;13.40;77.10
29007;DHT22;16104;48.642;9.008;2023-11-19T07:00:19;13.40;77.10
29007;DHT22;16104;48.642;9.008;2023-11-19T07:05:15;13.40;77.10
29007;DHT22;16104;48.642;9.008;2023-11-19T07:10:11;13.40;77.10
29007;DHT22;16104;48.642;9.008;2023-11-19T07:15:07;13.50;77.10
29007;DHT22;16104;48.642;9.008;2023-11-19T07:20:02;13.50;77.10
29007;DHT22;16104;48.642;9.008;2023-11-19T07:24:58;13.50;77.00
29007;DHT22;16104;48.642;9.008;2023-11-19T07:29:54;13.50;77.00
29007;DHT22;16104;48.642;9.008;2023-11-19T07:34:49;13.60;77.20
29007;DHT22;16104;48.642;9.008;2023-11-19T07:39:45;13.60;77.30
29007;DHT22;16104;48.642;9.008;2023-11-19T07:44:41;13.60;77.10
29007;DHT22;16104;48.642;9.008;2023-11-19T07:49:36;13.70;77.30
29007;DHT22;16104;48.642;9.008;2023-11-19T07:54:32;13.70;77.10
29007;DHT22;16104;48.642;9.008;2023-11-19T07:59:27;13.70;77.10
29007;DHT22;16104;48.642;9.008;2023-11-19T08:04:23;13.80;77.10
29007;DHT22;16104;48.642;9.008;2023-11-19T08:09:19;13.80;76.90
29007;DHT22;16104;48.642;9.008;2023-11-19T08:14:15;13.80;76.90
29007;DHT22;16104;48.642;9.008;2023-11-19T08:19:10;13.90;76.90
29007;DHT22;16104;48.642;9.008;2023-11-19T08:24:06;13.90;76.90
29007;DHT22;16104;48.642;9.008;2023-11-19T08:29:01;14.00;76.90
29007;DHT22;16104;48.642;9.008;2023-11-19T08:33:57;14.00;76.80
29007;DHT22;16104;48.642;9.008;2023-11-19T08:38:52;14.10;76.80
29007;DHT22;16104;48.642;9.008;2023-11-19T08:43:48;14.20;77.10
29007;DHT22;16104;48.642;9.008;2023-11-19T08:48:43;14.10;77.30
29007;DHT22;16104;48.642;9.008;2023-11-19T08:53:39;14.20;77.30
29007;DHT22;16104;48.642;9.008;2023-11-19T08:58:34;14.30;77.20
29007;DHT22;16104;48.642;9.008;2023-11-19T09:03:31;14.40;76.80
29007;DHT22;16104;48.642;9.008;2023-11-19T09:08:27;14.50;76.60
29007;DHT22;16104;48.642;9.008;2023-11-19T09:13:22;14.60;76.60
29007;DHT22;16104;48.642;9.008;2023-11-19T09:18:18;14.70;76.60
29007;DHT22;16104;48.642;9.008;2023-11-19T09:23:14;14.70;76.50
29007;DHT22;16104;48.642;9.008;2023-11-19T09:28:09;14.80;76.30
29007;DHT22;16104;48.642;9.008;2023-11-19T09:33:05;14.90;76.30
29007;DHT22;16104;48.642;9.008;2023-11-19T09:38:00;15.00;76.00
29007;DHT22;16104;48.642;9.008;2023-11-19T09:42:57;15.00;75.80
29007;DHT22;16104;48.642;9.008;2023-11-19T09:47:53;15.10;75.70
29007;DHT22;16104;48.642;9.008;2023-11-19T09:52:52;15.20;75.30
29007;DHT22;16104;48.642;9.008;2023-11-19T09:57:49;15.30;75.20
29007;DHT22;16104;48.642;9.008;2023-11-19T10:02:47;15.30;75.40
29007;DHT22;16104;48.642;9.008;2023-11-19T10:07:43;15.40;75.00
29007;DHT22;16104;48.642;9.008;2023-11-19T10:12:42;15.50;74.80
29007;DHT22;16104;48.642;9.008;2023-11-19T10:17:38;15.60;74.70
29007;DHT22;16104;48.642;9.008;2023-11-19T10:22:37;15.60;74.30
29007;DHT22;16104;48.642;9.008;2023-11-19T10:27:34;15.70;74.10
29007;DHT22;16104;48.642;9.008;2023-11-19T10:32:29;15.80;73.60
29007;DHT22;16104;48.642;9.008;2023-11-19T10:37:28;15.80;73.50
29007;DHT22;16104;48.642;9.008;2023-11-19T10:42:27;15.90;73.30
29007;DHT22;16104;48.642;9.008;2023-11-19T10:47:23;15.90;73.50
29007;DHT22;16104;48.642;9.008;2023-11-19T10:52:19;16.00;73.80
29007;DHT22;16104;48.642;9.008;2023-11-19T10:57:20;16.30;73.60
29007;DHT22;16104;48.642;9.008;2023-11-19T11:02:19;16.40;72.90
29007;DHT22;16104;48.642;9.008;2023-11-19T11:07:16;16.60;71.20
29007;DHT22;16104;48.642;9.008;2023-11-19T11:12:16;16.80;71.90
29007;DHT22;16104;48.642;9.008;2023-11-19T11:17:17;16.80;69.60
29007;DHT22;16104;48.642;9.008;2023-11-19T11:22:13;16.90;68.40
29007;DHT22;16104;48.642;9.008;2023-11-19T11:27:30;16.90;69.50
29007;DHT22;16104;48.642;9.008;2023-11-19T11:32:44;16.90;67.50
29007;DHT22;16104;48.642;9.008;2023-11-19T11:37:49;16.90;67.60
29007;DHT22;16104;48.642;9.008;2023-11-19T11:42:46;16.80;67.40
29007;DHT22;16104;48.642;9.008;2023-11-19T11:57:57;16.90;66.40
29007;DHT22;16104;48.642;9.008;2023-11-19T12:03:01;16.90;67.40
29007;DHT22;16104;48.642;9.008;2023-11-19T12:08:01;17.00;67.10
29007;DHT22;16104;48.642;9.008;2023-11-19T12:12:58;17.00;67.00
29007;DHT22;16104;48.642;9.008;2023-11-19T12:17:55;17.00;66.50
29007;DHT22;16104;48.642;9.008;2023-11-19T12:22:51;17.20;66.40
29007;DHT22;16104;48.642;9.008;2023-11-19T12:27:49;17.20;66.30
29007;DHT22;16104;48.642;9.008;2023-11-19T12:32:47;17.30;66.40
29007;DHT22;16104;48.642;9.008;2023-11-19T12:37:45;17.50;65.90
29007;DHT22;16104;48.642;9.008;2023-11-19T12:42:40;17.60;64.70
29007;DHT22;16104;48.642;9.008;2023-11-19T12:47:37;17.60;63.70
29007;DHT22;16104;48.642;9.008;2023-11-19T12:52:36;17.70;62.50
29007;DHT22;16104;48.642;9.008;2023-11-19T12:57:41;17.80;63.20
29007;DHT22;16104;48.642;9.008;2023-11-19T13:07:45;18.10;62.50
29007;DHT22;16104;48.642;9.008;2023-11-19T13:12:40;18.10;63.00
29007;DHT22;16104;48.642;9.008;2023-11-19T13:17:36;18.30;61.50
29007;DHT22;16104;48.642;9.008;2023-11-19T13:22:31;18.40;61.80
29007;DHT22;16104;48.642;9.008;2023-11-19T13:27:27;18.40;61.80
29007;DHT22;16104;48.642;9.008;2023-11-19T13:32:22;18.60;61.90
29007;DHT22;16104;48.642;9.008;2023-11-19T13:37:18;18.80;60.70
29007;DHT22;16104;48.642;9.008;2023-11-19T13:42:13;18.90;59.40
29007;DHT22;16104;48.642;9.008;2023-11-19T13:47:09;18.90;59.10
29007;DHT22;16104;48.642;9.008;2023-11-19T13:52:05;19.00;58.70
29007;DHT22;16104;48.642;9.008;2023-11-19T13:57:01;18.70;58.40
29007;DHT22;16104;48.642;9.008;2023-11-19T14:01:59;18.60;58.80
29007;DHT22;16104;48.642;9.008;2023-11-19T14:06:54;18.50;59.00
29007;DHT22;16104;48.642;9.008;2023-11-19T14:11:51;18.40;58.90
29007;DHT22;16104;48.642;9.008;2023-11-19T14:16:46;18.40;58.70
29007;DHT22;16104;48.642;9.008;2023-11-19T14:21:42;18.30;58.00
29007;DHT22;16104;48.642;9.008;2023-11-19T14:26:37;18.20;58.00
29007;DHT22;16104;48.642;9.008;2023-11-19T14:31:33;18.10;58.10
29007;DHT22;16104;48.642;9.008;2023-11-19T14:36:30;17.90;58.00
29007;DHT22;16104;48.642;9.008;2023-11-19T14:41:25;17.80;57.90
29007;DHT22;16104;48.642;9.008;2023-11-19T14:46:21;17.60;57.90
29007;DHT22;16104;48.642;9.008;2023-11-19T14:51:16;17.50;57.90
29007;DHT22;16104;48.642;9.008;2023-11-19T14:56:12;17.30;58.10
29007;DHT22;16104;48.642;9.008;2023-11-19T15:01:12;17.10;57.80
29007;DHT22;16104;48.642;9.008;2023-11-19T15:06:08;17.00;57.40
29007;DHT22;16104;48.642;9.008;2023-11-19T15:11:04;16.80;57.70
29007;DHT22;16104;48.642;9.008;2023-11-19T15:16:00;16.70;57.80
29007;DHT22;16104;48.642;9.008;2023-11-19T15:20:56;16.60;57.90
29007;DHT22;16104;48.642;9.008;2023-11-19T15:25:51;16.40;58.30
29007;DHT22;16104;48.642;9.008;2023-11-19T15:30:47;16.30;58.90
29007;DHT22;16104;48.642;9.008;2023-11-19T15:35:43;16.20;58.60
29007;DHT22;16104;48.642;9.008;2023-11-19T15:40:38;16.10;58.70
29007;DHT22;16104;48.642;9.008;2023-11-19T15:45:34;16.00;58.90
29007;DHT22;16104;48.642;9.008;2023-11-19T15:50:32;15.90;59.00
29007;DHT22;16104;48.642;9.008;2023-11-19T15:55:28;15.80;59.10
29007;DHT22;16104;48.642;9.008;2023-11-19T16:00:23;15.70;59.30
29007;DHT22;16104;48.642;9.008;2023-11-19T16:05:19;15.60;59.40
29007;DHT22;16104;48.642;9.008;2023-11-19T16:10:15;15.50;59.40
29007;DHT22;16104;48.642;9.008;2023-11-19T16:15:10;15.40;59.80
29007;DHT22;16104;48.642;9.008;2023-11-19T16:20:07;15.30;60.00
29007;DHT22;16104;48.642;9.008;2023-11-19T16:25:06;15.20;60.10
29007;DHT22;16104;48.642;9.008;2023-11-19T16:30:01;15.10;60.50
29007;DHT22;16104;48.642;9.008;2023-11-19T16:34:57;15.00;60.90
29007;DHT22;16104;48.642;9.008;2023-11-19T16:39:52;15.00;61.20
29007;DHT22;16104;48.642;9.008;2023-11-19T16:44:48;14.90;61.40
29007;DHT22;16104;48.642;9.008;2023-11-19T16:49:45;14.90;61.70
29007;DHT22;16104;48.642;9.008;2023-11-19T16:54:40;14.70;61.60
29007;DHT22;16104;48.642;9.008;2023-11-19T16:59:36;14.80;61.80
29007;DHT22;16104;48.642;9.008;2023-11-19T17:04:31;14.70;61.60
29007;DHT22;16104;48.642;9.008;2023-11-19T17:09:27;14.70;61.60
29007;DHT22;16104;48.642;9.008;2023-11-19T17:14:23;14.60;61.40
29007;DHT22;16104;48.642;9.008;2023-11-19T17:19:18;14.60;61.30
29007;DHT22;16104;48.642;9.008;2023-11-19T17:24:14;14.50;61.30
29007;DHT22;16104;48.642;9.008;2023-11-19T17:29:10;14.60;61.70
29007;DHT22;16104;48.642;9.008;2023-11-19T17:34:05;14.50;61.40
29007;DHT22;16104;48.642;9.008;2023-11-19T17:39:01;14.50;61.50
29007;DHT22;16104;48.642;9.008;2023-11-19T17:43:59;14.40;61.60
29007;DHT22;16104;48.642;9.008;2023-11-19T17:48:54;14.40;61.50
29007;DHT22;16104;48.642;9.008;2023-11-19T17:53:50;14.30;61.50
29007;DHT22;16104;48.642;9.008;2023-11-19T17:58:45;14.20;61.70
29007;DHT22;16104;48.642;9.008;2023-11-19T18:03:42;14.20;61.90
29007;DHT22;16104;48.642;9.008;2023-11-19T18:08:37;14.10;62.00
29007;DHT22;16104;48.642;9.008;2023-11-19T18:13:33;14.10;62.40
29007;DHT22;16104;48.642;9.008;2023-11-19T18:18:28;14.00;62.60
29007;DHT22;16104;48.642;9.008;2023-11-19T18:23:24;14.00;62.90
29007;DHT22;16104;48.642;9.008;2023-11-19T18:28:19;13.90;63.10
29007;DHT22;16104;48.642;9.008;2023-11-19T18:33:18;13.90;63.40
29007;DHT22;16104;48.642;9.008;2023-11-19T18:38:13;13.80;63.70
29007;DHT22;16104;48.642;9.008;2023-11-19T18:43:09;13.80;64.00
29007;DHT22;16104;48.642;9.008;2023-11-19T18:48:04;13.80;64.20
29007;DHT22;16104;48.642;9.008;2023-11-19T18:53:01;13.70;64.30
29007;DHT22;16104;48.642;9.008;2023-11-19T18:57:56;13.60;64.30
29007;DHT22;16104;48.642;9.008;2023-11-19T19:02:52;13.60;64.60
29007;DHT22;16104;48.642;9.008;2023-11-19T19:07:47;13.50;64.80
29007;DHT22;16104;48.642;9.008;2023-11-19T19:12:43;13.50;65.10
29007;DHT22;16104;48.642;9.008;2023-11-19T19:17:39;13.50;65.20
29007;DHT22;16104;48.642;9.008;2023-11-19T19:22:34;13.50;65.40
29007;DHT22;16104;48.642;9.008;2023-11-19T19:27:30;13.50;65.50
29007;DHT22;16104;48.642;9.008;2023-11-19T19:32:26;13.50;65.50
29007;DHT22;16104;48.642;9.008;2023-11-19T19:37:21;13.50;65.50
29007;DHT22;16104;48.642;9.008;2023-11-19T19:42:18;13.60;65.60
29007;DHT22;16104;48.642;9.008;2023-11-19T19:47:13;13.60;65.50
29007;DHT22;16104;48.642;9.008;2023-11-19T19:52:09;13.60;65.40
29007;DHT22;16104;48.642;9.008;2023-11-19T19:57:04;13.60;65.40
29007;DHT22;16104;48.642;9.008;2023-11-19T20:02:00;13.70;65.80
29007;DHT22;16104;48.642;9.008;2023-11-19T20:06:57;13.60;65.80
29007;DHT22;16104;48.642;9.008;2023-11-19T20:11:52;13.60;65.80
29007;DHT22;16104;48.642;9.008;2023-11-19T20:16:49;13.60;65.80
29007;DHT22;16104;48.642;9.008;2023-11-19T20:21:45;13.60;65.90
29007;DHT22;16104;48.642;9.008;2023-11-19T20:26:41;13.60;65.90
29007;DHT22;16104;48.642;9.008;2023-11-19T20:31:40;13.50;66.00
29007;DHT22;16104;48.642;9.008;2023-11-19T20:36:36;13.50;66.20
29007;DHT22;16104;48.642;9.008;2023-11-19T20:41:32;13.50;66.30
29007;DHT22;16104;48.642;9.008;2023-11-19T20:46:27;13.50;66.60
29007;DHT22;16104;48.642;9.008;2023-11-19T20:51:23;13.40;66.70
29007;DHT22;16104;48.642;9.008;2023-11-19T20:56:18;13.40;66.90
29007;DHT22;16104;48.642;9.008;2023-11-19T21:01:14;13.40;67.10
29007;DHT22;16104;48.642;9.008;2023-11-19T21:06:10;13.40;67.10
29007;DHT22;16104;48.642;9.008;2023-11-19T21:11:08;13.40;67.30
29007;DHT22;16104;48.642;9.008;2023-11-19T21:16:04;13.40;67.30
29007;DHT22;16104;48.642;9.008;2023-11-19T21:21:00;13.40;67.20
29007;DHT22;16104;48.642;9.008;2023-11-19T21:25:59;13.40;67.30
29007;DHT22;16104;48.642;9.008;2023-11-19T21:30:58;13.40;67.50
29007;DHT22;16104;48.642;9.008;2023-11-19T21:35:55;13.40;67.50
29007;DHT22;16104;48.642;9.008;2023-11-19T21:40:51;13.30;67.40
29007;DHT22;16104;48.642;9.008;2023-11-19T21:45:47;13.30;67.70
29007;DHT22;16104;48.642;9.008;2023-11-19T21:50:42;13.20;67.80
29007;DHT22;16104;48.642;9.008;2023-11-19T21:55:38;13.10;67.90
29007;DHT22;16104;48.642;9.008;2023-11-19T22:00:33;13.10;68.10
29007;DHT22;16104;48.642;9.008;2023-11-19T22:05:29;13.00;68.10
29007;DHT22;16104;48.642;9.008;2023-11-19T22:10:25;13.00;68.10
29007;DHT22;16104;48.642;9.008;2023-11-19T22:15:20;13.00;68.10
29007;DHT22;16104;48.642;9.008;2023-11-19T22:20:16;12.90;68.00
29007;DHT22;16104;48.642;9.008;2023-11-19T22:25:11;12.90;68.10
29007;DHT22;16104;48.642;9.008;2023-11-19T22:30:07;12.80;68.10
29007;DHT22;16104;48.642;9.008;2023-11-19T22:35:04;12.80;68.10
29007;DHT22;16104;48.642;9.008;2023-11-19T22:39:59;12.80;68.90
29007;DHT22;16104;48.642;9.008;2023-11-19T22:44:55;12.80;67.90
29007;DHT22;16104;48.642;9.008;2023-11-19T22:49:51;12.70;67.90
29007;DHT22;16104;48.642;9.008;2023-11-19T22:54:47;12.70;67.80
29007;DHT22;16104;48.642;9.008;2023-11-19T22:59:42;12.60;67.60
29007;DHT22;16104;48.642;9.008;2023-11-19T23:04:38;12.60;67.50
29007;DHT22;16104;48.642;9.008;2023-11-19T23:09:33;12.60;67.50
29007;DHT22;16104;48.642;9.008;2023-11-19T23:14:29;12.50;67.30
29007;DHT22;16104;48.642;9.008;2023-11-19T23:19:24;12.50;67.30
29007;DHT22;16104;48.642;9.008;2023-11-19T23:24:20;12.50;67.30
29007;DHT22;16104;48.642;9.008;2023-11-19T23:29:15;12.50;67.40
29007;DHT22;16104;48.642;9.008;2023-11-19T23:34:11;12.40;67.30
29007;DHT22;16104;48.642;9.008;2023-11-19T23:39:06;12.40;67.70
29007;DHT22;16104;48.642;9.008;2023-11-19T23:44:02;12.40;67.30
29007;DHT22;16104;48.642;9.008;2023-11-19T23:48:58;12.40;67.10
29007;DHT22;16104;48.642;9.008;2023-11-19T23:53:54;12.40;67.00
29007;DHT22;16104;48.642;9.008;2023-11-19T23:58:49;12.30;66.90
